Time;durP1;ratioP1;P1;durP2;ratioP2;P2;SDS_P1;SDS_P2;PMS_P1;PMS_P2;Temp;Humidity;BMP_temperature;BMP_pressure;BME280_temperature;BME280_humidity;BME280_pressure;Samples;Min_cycle;Max_cycle;Signal;HPM_P1;HPM_P2
2022/01/03 00:00:21;;;;;;;12.48;0.70;;;10.40;99.90;;;;;;5068739;28;20035;-78
2022/01/03 00:02:47;;;;;;;12.10;0.73;;;10.40;99.90;;;;;;5051998;28;20119;-78
2022/01/03 00:05:13;;;;;;;12.25;1.05;;;10.40;99.90;;;;;;5068578;28;20029;-78
2022/01/03 00:07:41;;;;;;;16.13;0.73;;;10.40;99.90;;;;;;5051793;28;20408;-78
2022/01/03 00:10:08;;;;;;;16.80;1.17;;;10.30;99.90;;;;;;5068429;28;20052;-78
2022/01/03 00:12:35;;;;;;;13.55;0.70;;;10.40;99.90;;;;;;5051556;28;20028;-78
2022/01/03 00:15:02;;;;;;;14.52;1.55;;;10.40;99.90;;;;;;5068470;28;20040;-79
2022/01/03 00:17:28;;;;;;;19.40;2.17;;;10.30;99.90;;;;;;5048694;28;20044;-78
2022/01/03 00:19:54;;;;;;;14.45;1.05;;;10.30;99.90;;;;;;5051641;28;20032;-78
2022/01/03 00:22:21;;;;;;;17.20;0.98;;;10.30;99.90;;;;;;5068459;28;20080;-78
2022/01/03 00:25:01;;;;;;;15.73;0.80;;;10.40;99.90;;;;;;5081089;28;20029;-78
2022/01/03 00:28:07;;;;;;;16.27;0.70;;;10.40;99.90;;;;;;5085854;28;20158;-79
2022/01/03 00:30:38;;;;;;;15.98;1.23;;;10.40;99.90;;;;;;4970122;28;20093;-78
2022/01/03 00:33:05;;;;;;;16.67;1.58;;;10.40;99.90;;;;;;4952348;28;20046;-78
2022/01/03 00:35:33;;;;;;;19.52;1.35;;;10.30;99.90;;;;;;4984571;28;20490;-78
2022/01/03 00:38:00;;;;;;;18.80;1.05;;;10.30;99.90;;;;;;4982644;28;20089;-78
2022/01/03 00:40:27;;;;;;;22.27;1.27;;;10.20;99.90;;;;;;4952361;28;20026;-78
2022/01/03 00:42:52;;;;;;;19.60;1.60;;;10.30;99.90;;;;;;4984275;28;20573;-78
2022/01/03 00:45:20;;;;;;;18.85;0.90;;;10.20;99.90;;;;;;4984535;28;20018;-78
2022/01/03 00:47:47;;;;;;;13.52;1.65;;;10.20;99.90;;;;;;4968026;28;20058;-78
2022/01/03 00:50:16;;;;;;;14.55;1.23;;;10.20;99.90;;;;;;4984401;28;20348;-78
2022/01/03 00:52:43;;;;;;;15.90;1.00;;;10.20;99.90;;;;;;4984332;28;20069;-78
2022/01/03 00:55:09;;;;;;;13.50;1.33;;;10.10;99.90;;;;;;4981953;28;20058;-76
2022/01/03 00:58:06;;;;;;;16.73;1.05;;;10.10;99.90;;;;;;4983921;28;20027;-78
2022/01/03 01:00:36;;;;;;;18.10;1.33;;;10.20;99.90;;;;;;4984232;28;20074;-78
2022/01/03 01:03:09;;;;;;;18.23;1.33;;;10.20;99.90;;;;;;4968059;28;20034;-79
2022/01/03 01:05:37;;;;;;;21.95;0.90;;;10.30;99.90;;;;;;4984183;28;20037;-78
2022/01/03 01:08:04;;;;;;;24.20;2.17;;;10.20;99.90;;;;;;5038128;28;20060;-78
2022/01/03 01:10:33;;;;;;;16.13;1.08;;;10.30;99.90;;;;;;5065196;28;20043;-78
2022/01/03 01:12:59;;;;;;;20.23;0.93;;;10.20;99.90;;;;;;5065046;28;20017;-78
2022/01/03 01:15:29;;;;;;;24.63;1.00;;;10.20;99.90;;;;;;5030954;28;20134;-78
2022/01/03 01:17:57;;;;;;;20.38;0.95;;;10.20;99.90;;;;;;5030681;28;20093;-78
2022/01/03 01:20:25;;;;;;;17.60;0.90;;;10.20;99.90;;;;;;5047283;28;20063;-78
2022/01/03 01:22:53;;;;;;;20.80;0.95;;;10.20;99.90;;;;;;5046931;28;20021;-79
2022/01/03 01:27:45;;;;;;;21.10;0.98;;;10.20;99.90;;;;;;5064510;28;20025;-78
2022/01/03 01:28:14;;;;;;;22.95;1.23;;;10.20;99.90;;;;;;5046719;28;20029;-78
2022/01/03 01:30:41;;;;;;;17.60;1.45;;;10.20;99.90;;;;;;5063835;28;20036;-78
2022/01/03 01:33:08;;;;;;;24.23;1.40;;;10.30;99.90;;;;;;5050369;28;20032;-79
2022/01/03 01:35:50;;;;;;;16.45;1.00;;;10.20;99.90;;;;;;5066670;28;20028;-78
2022/01/03 01:38:21;;;;;;;27.85;1.52;;;10.20;99.90;;;;;;5050208;28;20025;-78
2022/01/03 01:40:55;;;;;;;16.00;1.27;;;10.20;99.90;;;;;;5050325;28;20468;-78
2022/01/03 01:43:37;;;;;;;17.88;1.13;;;10.10;99.90;;;;;;5066795;28;20100;-78
2022/01/03 01:46:10;;;;;;;18.52;1.08;;;10.20;99.90;;;;;;5067087;28;20021;-79
2022/01/03 01:48:40;;;;;;;14.48;0.90;;;10.20;99.90;;;;;;5066627;28;20499;-78
2022/01/03 01:51:09;;;;;;;18.52;1.08;;;10.00;99.90;;;;;;5066744;28;20090;-78
2022/01/03 01:53:52;;;;;;;21.35;1.20;;;10.00;99.90;;;;;;5066709;28;20028;-78
2022/01/03 01:56:24;;;;;;;21.55;1.55;;;10.10;99.90;;;;;;5066620;28;20029;-78
2022/01/03 01:59:10;;;;;;;17.33;1.80;;;10.10;99.90;;;;;;5066393;28;20025;-79
2022/01/03 02:02:02;;;;;;;18.33;1.40;;;10.00;99.90;;;;;;5066587;28;20472;-78
2022/01/03 02:04:56;;;;;;;15.02;1.13;;;10.00;99.90;;;;;;5053925;28;20032;-79
2022/01/03 02:08:05;;;;;;;15.38;0.90;;;10.10;99.90;;;;;;5050399;28;20051;-78
2022/01/03 02:10:39;;;;;;;13.02;0.60;;;10.00;99.90;;;;;;5050086;28;20448;-78
2022/01/03 02:13:06;;;;;;;21.00;1.33;;;10.10;99.90;;;;;;5066717;28;20021;-78
2022/01/03 02:15:34;;;;;;;19.98;1.02;;;10.20;99.90;;;;;;5068026;28;20028;-78
2022/01/03 02:18:01;;;;;;;22.52;1.30;;;10.30;99.90;;;;;;5051575;28;20088;-78
2022/01/03 02:20:28;;;;;;;21.15;2.35;;;10.30;99.90;;;;;;5052787;28;20020;-79
2022/01/03 02:23:01;;;;;;;23.58;1.55;;;10.20;99.90;;;;;;5050958;28;20028;-79
2022/01/03 02:25:31;;;;;;;20.45;1.80;;;10.30;99.90;;;;;;5050632;28;20035;-78
2022/01/03 02:28:20;;;;;;;16.63;0.98;;;10.30;99.90;;;;;;5066255;28;20084;-78
2022/01/03 02:30:47;;;;;;;;;;;10.30;99.90;;;;;;4970467;28;20042;-79
2022/01/03 02:33:12;;;;;;;20.98;1.95;;;10.30;99.90;;;;;;4986203;28;19917;-79
2022/01/03 02:35:41;;;;;;;9.73;1.45;;;10.20;99.90;;;;;;4987910;28;20022;-78
2022/01/03 02:38:10;;;;;;;17.00;1.48;;;10.20;99.90;;;;;;4989667;28;20066;-78
2022/01/03 02:40:36;;;;;;;19.50;0.90;;;10.20;99.90;;;;;;4989993;28;20031;-79
2022/01/03 02:43:02;;;;;;;22.52;2.30;;;10.30;99.90;;;;;;4989881;28;20349;-78
2022/01/03 02:45:28;;;;;;;15.70;1.10;;;10.30;99.90;;;;;;5006139;28;20026;-78
2022/01/03 02:47:58;;;;;;;16.25;1.70;;;10.30;99.90;;;;;;4989501;28;20050;-78
2022/01/03 02:50:26;;;;;;;17.23;1.23;;;10.20;99.90;;;;;;5006058;28;20136;-79
2022/01/03 02:52:53;;;;;;;18.27;1.20;;;10.20;99.90;;;;;;4989728;28;20418;-79
2022/01/03 02:55:21;;;;;;;18.23;0.93;;;10.30;99.90;;;;;;4973745;28;20041;-79
2022/01/03 02:57:49;;;;;;;24.80;1.15;;;10.20;99.90;;;;;;5005708;28;20058;-79
2022/01/03 03:00:20;;;;;;;15.52;2.17;;;10.30;99.90;;;;;;4989410;28;20093;-78
2022/01/03 03:02:46;;;;;;;18.10;1.08;;;10.20;99.90;;;;;;5005779;28;20048;-78
2022/01/03 03:05:12;;;;;;;20.42;1.00;;;10.20;99.90;;;;;;4989656;28;20041;-79
2022/01/03 03:07:39;;;;;;;22.05;1.30;;;10.20;99.90;;;;;;5022842;28;20033;-78
2022/01/03 03:10:11;;;;;;;13.10;1.38;;;10.30;99.90;;;;;;5069371;28;20041;-79
2022/01/03 03:12:38;;;;;;;13.32;1.10;;;10.20;99.90;;;;;;5069513;28;20028;-79
2022/01/03 03:15:05;;;;;;;15.88;2.05;;;10.20;99.90;;;;;;5052688;28;20032;-78
2022/01/03 03:17:32;;;;;;;16.92;0.85;;;10.20;99.90;;;;;;5052703;28;20419;-79
2022/01/03 03:20:02;;;;;;;28.25;1.23;;;10.10;99.90;;;;;;5066559;28;20029;-79
2022/01/03 03:22:30;;;;;;;15.15;1.20;;;10.00;99.90;;;;;;5087588;28;20013;-79
2022/01/03 03:25:00;;;;;;;10.98;0.95;;;10.00;99.90;;;;;;5069277;28;20031;-79
2022/01/03 03:27:25;;;;;;;16.30;0.90;;;10.10;99.90;;;;;;5052566;28;20024;-79
2022/01/03 03:29:52;;;;;;;20.05;1.63;;;10.10;99.90;;;;;;5068747;28;20044;-79
2022/01/03 03:32:19;;;;;;;18.35;1.27;;;10.10;99.90;;;;;;5052808;28;20020;-79
2022/01/03 03:34:47;;;;;;;25.50;1.08;;;10.00;99.90;;;;;;5069224;28;20031;-79
2022/01/03 03:37:15;;;;;;;18.45;1.20;;;10.10;99.90;;;;;;5069069;28;20028;-78
2022/01/03 03:39:43;;;;;;;14.05;1.00;;;10.10;99.90;;;;;;5087185;28;20024;-76
2022/01/03 03:42:10;;;;;;;16.50;0.75;;;10.10;99.90;;;;;;5069808;28;20549;-78
2022/01/03 03:44:36;;;;;;;11.07;1.02;;;10.10;99.90;;;;;;5087069;28;20503;-79
2022/01/03 03:47:05;;;;;;;17.90;1.27;;;10.00;99.90;;;;;;5068239;28;20025;-79
2022/01/03 03:49:31;;;;;;;20.15;1.38;;;10.00;99.90;;;;;;5086873;28;20087;-77
2022/01/03 03:51:58;;;;;;;14.45;1.17;;;10.00;99.90;;;;;;5069036;28;20028;-79
2022/01/03 03:54:24;;;;;;;19.73;1.00;;;10.10;99.90;;;;;;5068891;28;20095;-79
2022/01/03 03:56:50;;;;;;;16.60;0.93;;;10.00;99.90;;;;;;5052126;28;20032;-79
2022/01/03 03:59:16;;;;;;;24.33;1.77;;;10.00;99.90;;;;;;5051919;28;20048;-78
2022/01/03 04:01:42;;;;;;;26.65;1.70;;;10.10;99.90;;;;;;5068653;28;20032;-78
2022/01/03 04:04:07;;;;;;;18.95;1.02;;;10.10;99.90;;;;;;5068671;28;20032;-79
2022/01/03 04:06:33;;;;;;;21.67;2.08;;;10.00;99.90;;;;;;5068526;28;20040;-79
2022/01/03 04:09:01;;;;;;;20.52;1.17;;;10.10;99.90;;;;;;5068417;28;20021;-78
2022/01/03 04:11:27;;;;;;;20.75;1.73;;;10.20;99.90;;;;;;5068403;28;20507;-79
2022/01/03 04:13:54;;;;;;;18.77;1.83;;;10.10;99.90;;;;;;5068403;28;20046;-78
2022/01/03 04:16:20;;;;;;;19.60;1.30;;;10.10;99.90;;;;;;5068307;28;20033;-79
2022/01/03 04:18:45;;;;;;;20.55;1.52;;;10.10;99.90;;;;;;5051560;28;20020;-79
2022/01/03 04:21:11;;;;;;;23.95;1.80;;;10.10;99.90;;;;;;5068253;28;20025;-78
2022/01/03 04:23:37;;;;;;;21.15;1.70;;;10.10;99.90;;;;;;5051760;28;20040;-79
2022/01/03 04:26:07;;;;;;;16.85;2.20;;;10.20;99.90;;;;;;5068178;28;20024;-79
2022/01/03 04:28:34;;;;;;;24.92;2.17;;;10.10;99.90;;;;;;5067829;28;20054;-78
2022/01/03 04:31:00;;;;;;;17.98;1.75;;;10.10;99.90;;;;;;5047849;28;20041;-79
2022/01/03 04:33:26;;;;;;;10.73;1.33;;;10.10;99.90;;;;;;5031670;28;20053;-79
2022/01/03 04:35:52;;;;;;;19.25;1.65;;;10.10;99.90;;;;;;5048004;28;20028;-79
2022/01/03 04:38:18;;;;;;;10.27;1.30;;;10.10;99.90;;;;;;5047735;28;20108;-79
2022/01/03 04:40:45;;;;;;;21.75;2.17;;;10.00;99.90;;;;;;5047909;28;20358;-79
2022/01/03 04:43:11;;;;;;;28.52;2.22;;;10.10;99.90;;;;;;5031368;28;20032;-78
2022/01/03 04:45:36;;;;;;;15.48;1.80;;;10.20;99.90;;;;;;5065668;28;20021;-79
2022/01/03 04:48:02;;;;;;;16.38;1.45;;;10.10;99.90;;;;;;5047480;28;20068;-79
2022/01/03 04:50:28;;;;;;;25.33;3.03;;;10.20;99.90;;;;;;5047567;28;20052;-79
2022/01/03 04:52:54;;;;;;;20.17;1.98;;;10.20;99.90;;;;;;5031222;28;20025;-79
2022/01/03 04:55:19;;;;;;;17.98;1.55;;;10.20;99.90;;;;;;5031030;28;20083;-79
2022/01/03 04:57:46;;;;;;;21.05;1.77;;;10.20;99.90;;;;;;5047253;28;20025;-79
2022/01/03 05:00:12;;;;;;;19.70;1.60;;;10.10;99.90;;;;;;5046691;28;20516;-79
2022/01/03 05:02:38;;;;;;;22.25;2.28;;;10.20;99.90;;;;;;5047514;28;20074;-79
2022/01/03 05:05:06;;;;;;;25.95;1.70;;;10.10;99.90;;;;;;5047376;28;20051;-79
2022/01/03 05:07:32;;;;;;;18.67;2.20;;;10.20;99.90;;;;;;5047205;28;20033;-79
2022/01/03 05:09:58;;;;;;;22.60;1.55;;;10.20;99.90;;;;;;5030867;28;20060;-79
2022/01/03 05:12:23;;;;;;;24.33;1.65;;;10.10;99.90;;;;;;5047445;28;20017;-78
2022/01/03 05:14:49;;;;;;;31.08;2.55;;;10.20;99.90;;;;;;5047214;28;20029;-79
2022/01/03 05:17:15;;;;;;;15.75;1.85;;;10.20;99.90;;;;;;5047016;28;20025;-79
2022/01/03 05:19:41;;;;;;;20.63;2.72;;;10.20;99.90;;;;;;5047079;28;20021;-78
2022/01/03 05:22:07;;;;;;;20.33;1.77;;;10.20;99.90;;;;;;5030757;28;20029;-79
2022/01/03 05:24:34;;;;;;;20.45;2.22;;;10.20;99.90;;;;;;5030758;28;20052;-79
2022/01/03 05:27:02;;;;;;;17.15;1.63;;;10.10;99.90;;;;;;5046770;28;20506;-79
2022/01/03 05:29:30;;;;;;;17.55;2.00;;;10.10;99.90;;;;;;5046761;28;20040;-77
2022/01/03 05:31:56;;;;;;;14.95;1.58;;;10.00;99.90;;;;;;5046915;28;20025;-79
2022/01/03 05:34:22;;;;;;;23.58;1.88;;;10.00;99.90;;;;;;5064839;28;20021;-80
2022/01/03 05:36:47;;;;;;;22.00;2.08;;;10.00;99.90;;;;;;5046802;28;20044;-78
2022/01/03 05:39:15;;;;;;;26.48;2.13;;;10.10;99.90;;;;;;5046726;28;20032;-79
2022/01/03 05:41:41;;;;;;;19.75;1.73;;;10.00;99.90;;;;;;5046798;28;20052;-79
2022/01/03 05:44:07;;;;;;;18.88;1.83;;;10.00;99.90;;;;;;5030470;28;20025;-79
2022/01/03 05:46:34;;;;;;;17.92;1.42;;;10.00;99.90;;;;;;5046713;28;20045;-79
2022/01/03 05:49:01;;;;;;;12.07;1.13;;;10.00;99.90;;;;;;5064693;28;20028;-80
2022/01/03 05:51:26;;;;;;;15.35;1.10;;;10.00;99.90;;;;;;5046709;28;20033;-79
2022/01/03 05:53:53;;;;;;;18.77;1.38;;;9.90;99.90;;;;;;5047099;28;20080;-79
2022/01/03 05:56:20;;;;;;;14.18;1.25;;;10.10;99.90;;;;;;5046639;28;20021;-79
2022/01/03 05:58:46;;;;;;;15.38;1.20;;;10.10;99.90;;;;;;5046603;28;20051;-79
2022/01/03 06:01:12;;;;;;;14.88;1.20;;;10.00;99.90;;;;;;5046312;28;20044;-80
2022/01/03 06:03:38;;;;;;;19.90;1.70;;;10.00;99.90;;;;;;5043625;28;20029;-80
2022/01/03 06:08:30;;;;;;;13.25;1.13;;;10.00;99.90;;;;;;5043790;28;20032;-80
2022/01/03 06:10:56;;;;;;;12.98;0.90;;;10.00;99.90;;;;;;5032237;28;20043;-81
2022/01/03 06:13:26;;;;;;;18.40;1.67;;;10.00;99.90;;;;;;5037375;28;20051;-80
2022/01/03 06:15:53;;;;;;;15.77;1.13;;;10.00;99.90;;;;;;5050443;28;20352;-82
2022/01/03 06:18:20;;;;;;;16.83;1.48;;;10.00;99.90;;;;;;5033957;28;20049;-85
2022/01/03 06:20:49;;;;;;;26.80;2.47;;;10.00;99.90;;;;;;5034567;28;20092;-84
2022/01/03 06:23:19;;;;;;;17.40;2.58;;;10.00;99.90;;;;;;5034716;28;20278;-85
2022/01/03 06:25:46;;;;;;;15.07;1.10;;;10.00;99.90;;;;;;5033908;28;20455;-83
2022/01/03 06:28:14;;;;;;;17.90;1.52;;;9.90;99.90;;;;;;5067068;28;20457;-84
2022/01/03 06:30:43;;;;;;;17.25;1.30;;;9.90;99.90;;;;;;5034300;28;20052;-84
2022/01/03 06:33:10;;;;;;;15.70;1.25;;;9.80;99.90;;;;;;5033696;28;20025;-85
2022/01/03 06:35:36;;;;;;;17.83;1.42;;;9.90;99.90;;;;;;5034018;28;20075;-83
2022/01/03 06:38:05;;;;;;;22.20;2.08;;;9.80;99.90;;;;;;5033738;28;20037;-85
2022/01/03 06:40:32;;;;;;;16.58;1.45;;;9.90;99.90;;;;;;5050348;28;20029;-84
2022/01/03 06:42:59;;;;;;;17.98;1.50;;;9.80;99.90;;;;;;5033772;28;20196;-84
2022/01/03 06:45:26;;;;;;;14.48;1.52;;;9.80;99.90;;;;;;5034313;28;20028;-84
2022/01/03 06:47:53;;;;;;;15.02;2.25;;;9.80;99.90;;;;;;5066758;28;20033;-85
2022/01/03 06:50:19;;;;;;;12.45;0.90;;;9.80;99.90;;;;;;5050114;28;20029;-85
2022/01/03 06:52:45;;;;;;;13.40;1.63;;;9.80;99.90;;;;;;5066758;28;20040;-85
2022/01/03 06:55:11;;;;;;;16.13;3.05;;;9.80;99.90;;;;;;5050228;28;20021;-86
2022/01/03 06:57:40;;;;;;;11.23;1.17;;;9.80;99.90;;;;;;5033782;28;20029;-84
2022/01/03 07:00:06;;;;;;;17.60;1.80;;;9.80;99.90;;;;;;5049962;28;20040;-83
2022/01/03 07:02:35;;;;;;;17.70;1.85;;;9.80;99.90;;;;;;5049504;28;20028;-84
2022/01/03 07:05:01;;;;;;;23.08;2.00;;;9.80;99.90;;;;;;5033514;28;20029;-85
2022/01/03 07:07:26;;;;;;;20.77;1.92;;;9.90;99.90;;;;;;5049685;28;20059;-85
2022/01/03 07:09:52;;;;;;;22.52;2.03;;;10.00;99.90;;;;;;5033276;28;20033;-83
2022/01/03 07:12:17;;;;;;;17.92;2.55;;;10.00;99.90;;;;;;5049496;28;20436;-83
2022/01/03 07:19:57;;;;;;;21.77;2.40;;;10.00;99.90;;;;;;5067065;28;20029;-84
2022/01/03 07:22:23;;;;;;;20.50;2.03;;;10.00;99.90;;;;;;5066493;28;20531;-85
2022/01/03 07:24:50;;;;;;;16.25;1.33;;;10.10;99.90;;;;;;5049646;28;20055;-85
2022/01/03 07:27:16;;;;;;;20.33;1.77;;;10.00;99.90;;;;;;5067263;28;20108;-85
2022/01/03 07:29:43;;;;;;;21.92;2.28;;;10.00;99.90;;;;;;5076093;28;20446;-83
2022/01/03 07:32:09;;;;;;;13.65;1.35;;;10.00;99.90;;;;;;5048544;28;20033;-82
2022/01/03 07:34:35;;;;;;;12.55;1.30;;;10.00;99.90;;;;;;5081700;28;20031;-84
2022/01/03 07:37:01;;;;;;;11.13;1.25;;;9.90;99.90;;;;;;5082572;28;20025;-83
2022/01/03 07:39:29;;;;;;;21.33;1.85;;;9.90;99.90;;;;;;5042657;28;20633;-84
2022/01/03 07:41:55;;;;;;;16.73;1.00;;;10.00;99.90;;;;;;5069422;28;20029;-84
2022/01/03 07:44:20;;;;;;;15.52;1.05;;;10.00;99.90;;;;;;5084429;28;20023;-85
2022/01/03 07:46:46;;;;;;;19.17;1.65;;;10.00;99.90;;;;;;5068785;28;20029;-82
2022/01/03 07:49:12;;;;;;;20.85;0.90;;;9.90;99.90;;;;;;5066050;28;20090;-83
2022/01/03 07:51:37;;;;;;;20.27;1.60;;;9.80;99.90;;;;;;5068933;28;20028;-84
2022/01/03 07:54:03;;;;;;;17.27;1.35;;;9.80;99.90;;;;;;5052396;28;20056;-83
2022/01/03 07:56:28;;;;;;;16.90;1.63;;;9.70;99.90;;;;;;5068957;28;20048;-84
2022/01/03 07:58:54;;;;;;;10.88;1.70;;;9.80;99.90;;;;;;5083916;28;20187;-82
2022/01/03 08:01:20;;;;;;;11.93;0.88;;;9.80;99.90;;;;;;5065526;28;20032;-84
2022/01/03 08:03:45;;;;;;;11.48;1.45;;;9.90;99.90;;;;;;5066272;28;20036;-82
2022/01/03 08:06:11;;;;;;;21.45;1.38;;;9.90;99.90;;;;;;5086559;28;20388;-82
2022/01/03 08:08:37;;;;;;;14.05;1.13;;;9.90;99.90;;;;;;5068309;28;20049;-83
2022/01/03 08:11:04;;;;;;;11.15;0.90;;;9.80;99.90;;;;;;5050745;28;20116;-83
2022/01/03 08:13:29;;;;;;;11.77;1.00;;;9.80;99.90;;;;;;5065827;28;20034;-83
2022/01/03 08:15:55;;;;;;;15.30;0.65;;;9.80;99.90;;;;;;5050181;28;20088;-81
2022/01/03 08:18:20;;;;;;;7.72;0.68;;;9.70;99.90;;;;;;5065650;28;20028;-79
2022/01/03 08:20:46;;;;;;;11.48;0.60;;;9.70;99.90;;;;;;5067663;28;20059;-79
2022/01/03 08:23:11;;;;;;;13.45;0.93;;;9.80;99.90;;;;;;5067480;28;20025;-79
2022/01/03 08:25:37;;;;;;;11.25;1.15;;;9.70;99.90;;;;;;5067524;28;20055;-79
2022/01/03 08:31:21;;;;;;;14.95;1.02;;;9.70;99.90;;;;;;4984645;28;20092;-78
2022/01/03 08:33:47;;;;;;;12.82;1.20;;;9.70;99.90;;;;;;4985804;28;20050;-77
2022/01/03 08:36:13;;;;;;;9.85;0.70;;;9.70;99.90;;;;;;4985499;28;20041;-78
2022/01/03 08:38:39;;;;;;;9.30;0.70;;;9.70;99.90;;;;;;4971732;28;20026;-78
2022/01/03 08:41:06;;;;;;;13.82;0.95;;;9.70;99.90;;;;;;4985342;28;20035;-78
2022/01/03 08:43:31;;;;;;;10.90;0.90;;;9.70;99.90;;;;;;4985440;28;20062;-79
2022/01/03 08:45:57;;;;;;;8.70;0.93;;;9.70;99.90;;;;;;4968962;28;20030;-79
2022/01/03 08:48:22;;;;;;;9.02;1.05;;;9.70;99.90;;;;;;4969290;28;20085;-79
2022/01/03 08:50:48;;;;;;;15.95;0.82;;;9.70;99.90;;;;;;4968982;28;20058;-79
2022/01/03 08:53:14;;;;;;;12.00;0.75;;;9.70;99.90;;;;;;4968983;28;20051;-79
2022/01/03 08:55:41;;;;;;;11.60;0.90;;;9.70;99.90;;;;;;4968802;28;20059;-78
2022/01/03 08:58:07;;;;;;;12.60;1.30;;;9.70;99.90;;;;;;4985026;28;20058;-79
2022/01/03 09:00:34;;;;;;;7.10;0.60;;;9.70;99.90;;;;;;4952841;28;20179;-79
2022/01/03 09:03:00;;;;;;;14.05;0.80;;;9.70;99.90;;;;;;4985078;28;20035;-79
2022/01/03 09:05:27;;;;;;;11.45;0.90;;;9.80;99.90;;;;;;4968500;28;20038;-78
2022/01/03 09:07:53;;;;;;;14.45;1.80;;;9.80;99.90;;;;;;4968418;28;20046;-79
2022/01/03 09:10:18;;;;;;;10.27;0.63;;;9.80;99.90;;;;;;4985952;28;20026;-79
2022/01/03 09:12:44;;;;;;;11.02;0.98;;;9.80;99.90;;;;;;4984888;28;20031;-79
2022/01/03 09:15:09;;;;;;;7.68;0.50;;;9.80;99.90;;;;;;4984595;28;20072;-79
2022/01/03 09:17:35;;;;;;;12.05;1.02;;;9.90;99.90;;;;;;4987087;28;20028;-78
2022/01/03 09:20:02;;;;;;;12.63;0.75;;;9.90;99.90;;;;;;4984396;28;20132;-79
2022/01/03 09:22:34;;;;;;;16.80;1.25;;;9.90;99.90;;;;;;4985687;28;20030;-79
2022/01/03 09:30:10;;;;;;;14.30;1.80;;;10.10;99.90;;;;;;5008045;28;20058;-79
2022/01/03 09:32:36;;;;;;;9.00;1.05;;;10.00;99.90;;;;;;5005197;28;20059;-78
2022/01/03 09:35:03;;;;;;;15.27;1.65;;;10.10;99.90;;;;;;5004856;28;20090;-78
2022/01/03 09:37:29;;;;;;;14.27;1.30;;;10.10;99.90;;;;;;5019807;28;20105;-79
2022/01/03 09:39:55;;;;;;;16.55;1.52;;;10.10;99.90;;;;;;4993387;28;20018;-79
2022/01/03 09:42:28;;;;;;;17.00;1.50;;;10.10;99.90;;;;;;5020019;28;20053;-79
2022/01/03 09:44:56;;;;;;;15.00;1.17;;;10.00;99.90;;;;;;5003021;28;20031;-79
2022/01/03 09:47:23;;;;;;;12.57;1.10;;;10.00;99.90;;;;;;5019809;28;20570;-78
2022/01/03 09:49:50;;;;;;;11.95;1.00;;;10.00;99.90;;;;;;5019773;28;20034;-79
2022/01/03 09:52:20;;;;;;;16.73;1.48;;;10.00;99.90;;;;;;5003576;28;20084;-78
2022/01/03 09:54:46;;;;;;;13.13;1.38;;;10.00;99.90;;;;;;5019721;28;20031;-78
2022/01/03 09:57:14;;;;;;;10.00;1.30;;;10.00;99.90;;;;;;5003368;28;20032;-78
2022/01/03 09:59:39;;;;;;;14.55;1.52;;;9.90;99.90;;;;;;5004507;28;20030;-79
2022/01/03 10:02:06;;;;;;;11.27;1.02;;;9.90;99.90;;;;;;5004714;28;20088;-78
2022/01/03 10:04:33;;;;;;;21.38;2.15;;;10.00;99.90;;;;;;5004622;28;20030;-79
2022/01/03 10:06:59;;;;;;;11.05;0.95;;;10.00;99.90;;;;;;5004517;28;20029;-79
2022/01/03 10:09:26;;;;;;;12.90;1.15;;;10.10;99.90;;;;;;4986852;28;20027;-78
2022/01/03 10:11:52;;;;;;;10.85;1.05;;;10.00;99.90;;;;;;4986917;28;20030;-79
2022/01/03 10:14:18;;;;;;;11.85;1.02;;;10.00;99.90;;;;;;5019869;28;20030;-80
2022/01/03 10:16:45;;;;;;;8.00;1.13;;;9.90;99.90;;;;;;5018370;28;20034;-79
2022/01/03 10:19:11;;;;;;;12.80;0.80;;;9.90;99.90;;;;;;5019316;28;20109;-79
2022/01/03 10:21:46;;;;;;;6.38;0.60;;;9.90;99.90;;;;;;5003028;28;20022;-79
2022/01/03 10:24:14;;;;;;;13.30;1.40;;;9.80;99.90;;;;;;5004456;28;20026;-79
2022/01/03 10:26:42;;;;;;;15.77;1.77;;;9.90;99.90;;;;;;5002931;28;20026;-79
2022/01/03 10:29:17;;;;;;;15.52;2.30;;;9.80;99.90;;;;;;5040807;22;20048;-79
2022/01/03 10:31:47;;;;;;;14.32;1.67;;;9.90;99.90;;;;;;5066507;28;20047;-78
2022/01/03 10:34:17;;;;;;;17.10;1.50;;;9.90;99.90;;;;;;5091111;28;20031;-78
2022/01/03 10:36:46;;;;;;;14.95;1.23;;;9.90;99.90;;;;;;5069262;28;20055;-79
2022/01/03 10:39:27;;;;;;;14.93;1.58;;;9.80;99.90;;;;;;5083245;28;20032;-78
2022/01/03 10:42:12;;;;;;;17.90;1.25;;;9.80;99.90;;;;;;5067595;28;20089;-78
2022/01/03 10:44:41;;;;;;;11.95;1.10;;;9.80;99.90;;;;;;5052529;28;20028;-79
2022/01/03 10:47:08;;;;;;;10.40;1.17;;;9.70;99.90;;;;;;5085471;28;20070;-79
2022/01/03 10:49:36;;;;;;;10.65;0.88;;;9.90;99.90;;;;;;5086213;28;20031;-79
2022/01/03 10:52:20;;;;;;;14.45;1.10;;;9.90;99.90;;;;;;5080050;28;20036;-78
2022/01/03 10:55:07;;;;;;;16.38;1.20;;;9.90;99.90;;;;;;5066135;28;20243;-79
2022/01/03 10:57:56;;;;;;;11.40;1.17;;;10.10;99.90;;;;;;5085263;28;21302;-78
2022/01/03 11:00:31;;;;;;;11.40;1.10;;;10.20;99.90;;;;;;5069718;28;20111;-77
2022/01/03 11:03:46;;;;;;;13.48;1.00;;;10.20;99.90;;;;;;5069563;28;20040;-78
2022/01/03 11:06:22;;;;;;;15.27;1.10;;;10.20;99.90;;;;;;5104107;28;20179;-79
2022/01/03 11:11:36;;;;;;;13.88;1.23;;;10.30;99.90;;;;;;5104323;28;20054;-79
2022/01/03 11:14:02;;;;;;;14.55;1.40;;;10.30;99.90;;;;;;5089284;28;20032;-78
2022/01/03 11:16:33;;;;;;;15.30;1.83;;;10.20;99.90;;;;;;5072135;28;20036;-79
2022/01/03 11:18:59;;;;;;;15.32;1.33;;;10.10;99.90;;;;;;5086522;28;20027;-79
2022/01/03 11:21:26;;;;;;;13.13;1.75;;;10.10;99.90;;;;;;5089008;28;20012;-79
2022/01/03 11:24:09;;;;;;;11.18;1.05;;;10.10;99.90;;;;;;5089115;28;20032;-80
2022/01/03 11:26:48;;;;;;;17.13;1.70;;;10.10;99.90;;;;;;5088717;28;20028;-79
2022/01/03 11:29:15;;;;;;;15.85;2.25;;;10.20;99.90;;;;;;5088533;28;20067;-79
2022/01/03 11:31:42;;;;;;;17.85;1.45;;;10.20;99.90;;;;;;5088541;28;20142;-79
2022/01/03 11:34:09;;;;;;;14.75;1.15;;;10.10;99.90;;;;;;5088789;28;20049;-78
2022/01/03 11:36:36;;;;;;;11.75;1.52;;;10.10;99.90;;;;;;5068296;28;20484;-79
2022/01/03 11:39:07;;;;;;;17.17;1.73;;;10.10;99.90;;;;;;5085663;28;20024;-78
2022/01/03 11:41:36;;;;;;;13.75;1.48;;;10.20;99.90;;;;;;5088359;28;20111;-79
2022/01/03 11:44:03;;;;;;;11.32;1.10;;;10.20;99.90;;;;;;5088510;28;20035;-79
2022/01/03 11:46:29;;;;;;;12.20;1.23;;;10.30;99.90;;;;;;5103821;28;20016;-78
2022/01/03 11:48:56;;;;;;;17.60;2.05;;;10.50;99.90;;;;;;5088430;28;20040;-79
2022/01/03 11:51:22;;;;;;;10.10;1.42;;;10.50;99.90;;;;;;5088084;28;20040;-79
2022/01/03 11:53:50;;;;;;;16.83;1.90;;;10.50;99.90;;;;;;5106523;28;20542;-79
2022/01/03 11:56:18;;;;;;;22.48;1.77;;;10.80;99.90;;;;;;5106231;28;20024;-79
2022/01/03 11:58:58;;;;;;;21.27;2.80;;;10.90;99.90;;;;;;5106378;28;20024;-78
2022/01/03 12:04:23;;;;;;;15.43;2.33;;;10.80;99.90;;;;;;5085133;28;20062;-79
2022/01/03 12:06:49;;;;;;;11.77;1.50;;;10.80;99.90;;;;;;5067805;28;20095;-79
2022/01/03 12:09:17;;;;;;;13.82;1.05;;;10.90;99.90;;;;;;5067395;28;20033;-78
2022/01/03 12:11:53;;;;;;;11.88;2.28;;;10.90;99.90;;;;;;5067929;28;20040;-79
2022/01/03 12:14:43;;;;;;;8.30;0.80;;;10.80;99.90;;;;;;5051342;28;20040;-79
2022/01/03 12:17:10;;;;;;;12.88;1.60;;;10.80;99.90;;;;;;5076525;28;20051;-79
2022/01/03 12:19:42;;;;;;;14.23;1.38;;;10.70;99.90;;;;;;5087945;28;20034;-79
2022/01/03 12:22:23;;;;;;;9.60;0.80;;;10.70;99.90;;;;;;5106063;28;20050;-78
2022/01/03 12:25:00;;;;;;;11.05;1.63;;;10.60;99.90;;;;;;5106100;28;20079;-78
2022/01/03 12:27:31;;;;;;;17.83;1.85;;;10.60;99.90;;;;;;5065955;28;20085;-79
2022/01/03 12:29:56;;;;;;;14.10;1.17;;;10.50;99.90;;;;;;5085330;28;20105;-78
2022/01/03 12:32:23;;;;;;;10.10;0.93;;;10.60;99.90;;;;;;5067556;28;20032;-79
2022/01/03 12:35:07;;;;;;;12.65;1.35;;;10.50;99.90;;;;;;5067486;28;20461;-79
2022/01/03 12:37:53;;;;;;;15.55;1.42;;;10.60;99.90;;;;;;5067259;28;20047;-78
2022/01/03 12:40:44;;;;;;;11.32;0.88;;;10.50;99.90;;;;;;5045414;28;20442;-78
2022/01/03 12:43:12;;;;;;;11.10;1.08;;;10.50;99.90;;;;;;5083101;28;20087;-78
2022/01/03 12:45:43;;;;;;;7.45;0.80;;;10.50;99.90;;;;;;5067262;28;20029;-78
2022/01/03 12:48:11;;;;;;;17.52;2.38;;;10.60;99.90;;;;;;5050367;28;20043;-79
2022/01/03 12:50:43;;;;;;;12.07;1.42;;;10.70;99.90;;;;;;5099564;28;20066;-79
2022/01/03 12:53:12;;;;;;;19.70;1.38;;;10.60;99.90;;;;;;5069342;28;20028;-79
2022/01/03 12:55:38;;;;;;;12.50;1.20;;;10.50;99.90;;;;;;5040112;28;20047;-79
2022/01/03 12:58:23;;;;;;;10.27;1.20;;;10.50;99.90;;;;;;5065532;28;20157;-82
2022/01/03 13:00:55;;;;;;;10.45;1.08;;;10.40;99.90;;;;;;5105232;28;20030;-83
2022/01/03 13:03:27;;;;;;;12.57;1.00;;;10.40;99.90;;;;;;5086917;28;20032;-83
2022/01/03 13:06:18;;;;;;;10.88;1.10;;;10.50;99.90;;;;;;5101954;28;20048;-80
2022/01/03 13:08:55;;;;;;;12.80;0.80;;;10.50;99.90;;;;;;5086741;28;20028;-79
2022/01/03 13:11:29;;;;;;;8.15;0.80;;;10.40;99.90;;;;;;5104996;28;20047;-79